Time;durP1;ratioP1;P1;durP2;ratioP2;P2;SDS_P1;SDS_P2;PMS_P1;PMS_P2;Temp;Humidity;BMP_temperature;BMP_pressure;BME280_temperature;BME280_humidity;BME280_pressure;Samples;Min_cycle;Max_cycle;Signal;HPM_P1;HPM_P2
2021/03/09 00:00:04;;;;;;;9.83;7.10;;;0.60;99.90;;;;;;4876167;29;20504;-93
2021/03/09 00:02:30;;;;;;;9.90;7.87;;;0.50;99.90;;;;;;4897441;29;21002;-91
2021/03/09 00:04:55;;;;;;;11.23;8.50;;;0.50;99.90;;;;;;4884480;29;20527;-91
2021/03/09 00:07:21;;;;;;;12.60;8.30;;;0.50;99.90;;;;;;4882702;29;21253;-92
2021/03/09 00:09:49;;;;;;;8.10;7.30;;;0.50;99.90;;;;;;4883220;29;20223;-94
2021/03/09 00:12:15;;;;;;;9.97;7.50;;;0.50;99.90;;;;;;4884295;29;20188;-93
2021/03/09 00:14:41;;;;;;;9.50;7.27;;;0.50;99.90;;;;;;4884684;29;20475;-94
2021/03/09 00:17:06;;;;;;;8.53;7.07;;;0.50;99.90;;;;;;4886562;29;20448;-93
2021/03/09 00:19:35;;;;;;;10.70;8.00;;;0.40;99.90;;;;;;4885432;29;20364;-91
2021/03/09 00:22:01;;;;;;;9.10;7.60;;;0.30;99.90;;;;;;4882966;29;20204;-94
2021/03/09 00:24:27;;;;;;;14.40;8.70;;;0.20;99.90;;;;;;4884111;29;20485;-93
2021/03/09 00:26:52;;;;;;;11.83;8.33;;;0.10;99.90;;;;;;4878125;29;20199;-93
2021/03/09 00:29:21;;;;;;;10.00;7.90;;;0.00;99.90;;;;;;4884554;29;20821;-93
2021/03/09 00:31:47;;;;;;;11.53;8.67;;;-0.10;99.90;;;;;;4887080;29;20208;-94
2021/03/09 00:34:12;;;;;;;12.27;8.23;;;0.00;99.90;;;;;;4888490;29;20455;-92
2021/03/09 00:36:40;;;;;;;14.10;9.30;;;0.10;99.90;;;;;;4899279;29;20200;-93
2021/03/09 00:39:06;;;;;;;12.57;8.47;;;0.10;99.90;;;;;;4884691;29;20228;-93
2021/03/09 00:41:37;;;;;;;12.23;7.90;;;-0.10;99.90;;;;;;4902811;29;20452;-93
2021/03/09 00:44:03;;;;;;;13.03;8.73;;;-0.20;99.90;;;;;;4898013;29;20583;-93
2021/03/09 00:46:29;;;;;;;10.07;7.23;;;-0.10;99.90;;;;;;4898467;29;20190;-92
2021/03/09 00:48:54;;;;;;;9.10;7.23;;;-0.10;99.90;;;;;;4879975;29;20475;-91
2021/03/09 00:51:20;;;;;;;10.40;7.87;;;0.00;99.90;;;;;;4880171;29;20718;-91
2021/03/09 00:53:46;;;;;;;12.00;8.40;;;0.00;99.90;;;;;;4882931;29;20659;-90
2021/03/09 00:56:11;;;;;;;12.83;9.13;;;0.10;99.90;;;;;;4878928;29;20201;-91
2021/03/09 00:58:37;;;;;;;12.40;8.20;;;0.10;99.90;;;;;;4885375;29;20196;-92
2021/03/09 01:01:03;;;;;;;12.83;8.60;;;0.10;99.90;;;;;;4885614;29;20570;-92
2021/03/09 01:03:29;;;;;;;11.63;7.70;;;0.10;99.90;;;;;;4884826;29;20977;-93
2021/03/09 01:05:54;;;;;;;10.10;8.33;;;0.20;99.90;;;;;;4886244;29;20507;-92
2021/03/09 01:08:20;;;;;;;14.50;8.83;;;0.30;99.90;;;;;;4883948;29;20196;-92
2021/03/09 01:10:46;;;;;;;12.10;8.30;;;0.40;99.90;;;;;;4884026;29;21899;-93
2021/03/09 01:13:11;;;;;;;13.03;8.40;;;0.40;99.90;;;;;;4882009;29;20192;-94
2021/03/09 01:15:37;;;;;;;11.00;7.90;;;0.30;99.90;;;;;;4898567;29;20204;-93
2021/03/09 01:18:04;;;;;;;12.80;8.87;;;0.20;99.90;;;;;;4889451;29;20233;-94
2021/03/09 01:20:30;;;;;;;12.87;7.83;;;0.30;99.90;;;;;;4880421;29;20497;-93
2021/03/09 01:22:56;;;;;;;10.83;8.67;;;0.30;99.90;;;;;;4893823;29;20519;-92
2021/03/09 01:25:21;;;;;;;9.63;7.67;;;0.30;99.90;;;;;;4886882;29;20227;-92
2021/03/09 01:27:47;;;;;;;9.80;7.90;;;0.30;99.90;;;;;;4882454;29;20679;-94
2021/03/09 01:30:13;;;;;;;11.43;8.33;;;0.30;99.90;;;;;;4885697;29;20706;-91
2021/03/09 01:32:39;;;;;;;11.30;8.67;;;0.30;99.90;;;;;;4885214;29;20228;-93
2021/03/09 01:35:06;;;;;;;11.70;9.10;;;0.30;99.90;;;;;;4881284;29;21216;-92
2021/03/09 01:37:32;;;;;;;10.90;8.00;;;0.30;99.90;;;;;;4882396;29;20196;-92
2021/03/09 01:39:58;;;;;;;14.93;8.43;;;0.30;99.90;;;;;;4886930;29;20460;-93
2021/03/09 01:42:24;;;;;;;10.68;7.45;;;0.20;99.90;;;;;;4885025;29;20208;-92
2021/03/09 01:44:50;;;;;;;12.87;7.90;;;0.30;99.90;;;;;;4884861;29;20213;-91
2021/03/09 01:47:17;;;;;;;10.90;7.90;;;0.20;99.90;;;;;;4884696;29;20312;-92
2021/03/09 01:49:43;;;;;;;11.70;8.60;;;0.20;99.90;;;;;;4887598;29;20485;-91
2021/03/09 01:52:10;;;;;;;12.30;8.60;;;0.20;99.90;;;;;;4879933;29;20875;-90
2021/03/09 01:54:38;;;;;;;9.43;8.27;;;0.10;99.90;;;;;;4899105;29;20452;-91
2021/03/09 01:57:06;;;;;;;13.00;8.20;;;0.10;99.90;;;;;;4883851;29;20469;-93
2021/03/09 01:59:32;;;;;;;10.20;7.67;;;0.10;99.90;;;;;;4885991;29;20476;-92
2021/03/09 02:01:58;;;;;;;13.10;9.00;;;0.10;99.90;;;;;;4879959;29;20445;-93
2021/03/09 02:04:24;;;;;;;9.23;7.60;;;0.10;99.90;;;;;;4883478;29;20483;-93
2021/03/09 02:06:50;;;;;;;12.67;8.50;;;0.20;99.90;;;;;;4897026;29;20280;-94
2021/03/09 02:09:17;;;;;;;12.60;8.50;;;0.10;99.90;;;;;;4885270;29;20460;-94
2021/03/09 02:12:22;;;;;;;10.77;8.10;;;0.20;99.90;;;;;;4885495;29;20200;-94
2021/03/09 02:15:09;;;;;;;12.70;8.30;;;0.10;99.90;;;;;;4883119;29;20456;-93
2021/03/09 02:18:20;;;;;;;14.00;8.20;;;0.10;99.90;;;;;;4896770;29;20568;-93
2021/03/09 02:21:03;;;;;;;10.13;8.00;;;0.00;99.90;;;;;;4811264;29;20550;-93
2021/03/09 02:23:56;;;;;;;11.60;8.67;;;0.10;99.90;;;;;;4843962;29;20490;-93
2021/03/09 02:26:31;;;;;;;12.10;8.70;;;0.00;99.90;;;;;;4896125;29;20464;-93
2021/03/09 02:29:19;;;;;;;11.43;8.50;;;0.00;99.90;;;;;;4886372;29;20487;-93
2021/03/09 02:31:50;;;;;;;13.37;8.03;;;-0.10;99.90;;;;;;4884807;29;20463;-93
2021/03/09 02:34:24;;;;;;;11.40;9.10;;;-0.10;99.90;;;;;;4885356;29;20436;-93
2021/03/09 02:36:51;;;;;;;11.20;7.90;;;-0.10;99.90;;;;;;4884455;29;20491;-95
2021/03/09 02:39:18;;;;;;;13.33;8.17;;;-0.10;99.90;;;;;;4883100;29;20827;-92
2021/03/09 02:41:47;;;;;;;11.13;8.53;;;-0.10;99.90;;;;;;4881495;29;20449;-92
2021/03/09 02:44:17;;;;;;;11.40;7.77;;;-0.10;99.90;;;;;;4882867;29;20532;-92
2021/03/09 02:46:53;;;;;;;11.67;8.43;;;-0.10;99.90;;;;;;4879312;29;20453;-96
2021/03/09 02:49:19;;;;;;;9.33;7.70;;;-0.10;99.90;;;;;;4883700;29;20449;-94
2021/03/09 02:51:47;;;;;;;10.53;7.70;;;-0.10;99.90;;;;;;4885250;29;20497;-94
2021/03/09 02:54:16;;;;;;;12.20;8.80;;;-0.10;99.90;;;;;;4882283;29;20443;-95
2021/03/09 02:56:44;;;;;;;14.17;9.70;;;-0.20;99.90;;;;;;4886901;29;20476;-95
2021/03/09 02:59:13;;;;;;;13.20;10.13;;;-0.20;99.90;;;;;;4880578;29;20543;-95
2021/03/09 03:01:42;;;;;;;12.20;9.10;;;-0.20;99.90;;;;;;4886908;29;20961;-94
2021/03/09 03:04:11;;;;;;;11.25;9.00;;;-0.20;99.90;;;;;;4884712;29;20476;-94
2021/03/09 03:06:38;;;;;;;11.60;8.70;;;-0.20;99.90;;;;;;4874290;29;20204;-93
2021/03/09 03:09:04;;;;;;;10.80;8.67;;;-0.10;99.90;;;;;;4884786;29;20297;-93
2021/03/09 03:11:31;;;;;;;12.17;9.10;;;-0.20;99.90;;;;;;4882762;29;20523;-94
2021/03/09 03:14:04;;;;;;;14.43;9.67;;;-0.20;99.90;;;;;;4885255;29;20448;-94
2021/03/09 03:16:31;;;;;;;13.53;8.77;;;-0.20;99.90;;;;;;4881646;29;20536;-91
2021/03/09 03:19:01;;;;;;;14.73;8.45;;;-0.20;99.90;;;;;;4885280;29;20440;-92
2021/03/09 03:21:29;;;;;;;11.20;9.43;;;-0.30;99.90;;;;;;4879336;29;20201;-92
2021/03/09 03:23:59;;;;;;;12.80;9.68;;;-0.40;99.90;;;;;;4900334;29;20476;-94
2021/03/09 03:26:25;;;;;;;12.27;9.50;;;-0.40;99.90;;;;;;4885603;29;20193;-93
2021/03/09 03:28:52;;;;;;;11.43;8.23;;;-0.40;99.90;;;;;;4883280;29;20227;-94
2021/03/09 03:31:18;;;;;;;10.43;8.20;;;-0.30;99.90;;;;;;4885270;29;20192;-96
2021/03/09 03:33:44;;;;;;;12.27;9.20;;;-0.40;99.90;;;;;;4884285;29;20287;-94
2021/03/09 03:36:26;;;;;;;11.60;8.60;;;-0.50;99.90;;;;;;4890316;29;20548;-93
2021/03/09 03:38:55;;;;;;;11.87;8.33;;;-0.40;99.90;;;;;;4906348;29;20228;-93
2021/03/09 03:41:21;;;;;;;12.47;8.30;;;-0.40;99.90;;;;;;4886346;29;21106;-92
2021/03/09 03:43:47;;;;;;;11.15;8.48;;;-0.40;99.90;;;;;;4883593;29;20503;-93
2021/03/09 03:46:12;;;;;;;13.80;8.97;;;-0.60;99.90;;;;;;4884265;29;20223;-93
2021/03/09 03:48:38;;;;;;;17.73;9.40;;;-0.70;99.90;;;;;;4903996;29;20554;-93
2021/03/09 03:51:12;;;;;;;10.33;8.20;;;-0.60;99.90;;;;;;4891326;29;20323;-96
2021/03/09 03:54:15;;;;;;;10.32;8.55;;;-0.60;99.90;;;;;;4888979;29;20185;-95
2021/03/09 03:56:53;;;;;;;10.50;8.20;;;-0.60;99.90;;;;;;4889458;29;20746;-94
2021/03/09 03:59:31;;;;;;;11.30;8.53;;;-0.60;99.90;;;;;;4889211;29;20199;-95
2021/03/09 04:02:00;;;;;;;11.38;8.60;;;-0.60;99.90;;;;;;4889728;29;20440;-96
2021/03/09 04:04:28;;;;;;;11.30;8.60;;;-0.70;99.90;;;;;;4889352;29;20219;-95
2021/03/09 04:06:54;;;;;;;11.63;8.07;;;-0.80;99.90;;;;;;4889579;29;20184;-95
2021/03/09 04:09:21;;;;;;;11.68;8.75;;;-0.80;99.90;;;;;;4888923;29;20196;-96
2021/03/09 04:11:48;;;;;;;10.02;7.85;;;-0.80;99.90;;;;;;4889241;29;20200;-96
2021/03/09 04:14:15;;;;;;;13.27;9.02;;;-0.90;99.90;;;;;;4894209;29;20189;-95
2021/03/09 04:16:44;;;;;;;10.73;8.02;;;-0.90;99.90;;;;;;4886103;29;20185;-94
2021/03/09 04:19:12;;;;;;;11.15;7.72;;;-0.80;99.90;;;;;;4899655;29;20212;-95
2021/03/09 04:21:40;;;;;;;11.05;8.68;;;-0.80;99.90;;;;;;4900303;29;20227;-94
2021/03/09 04:24:07;;;;;;;12.52;8.07;;;-0.90;99.90;;;;;;4886033;29;20967;-94
2021/03/09 04:26:33;;;;;;;10.30;7.93;;;-0.90;99.90;;;;;;4888374;29;20296;-95
2021/03/09 04:28:59;;;;;;;13.75;8.85;;;-0.80;99.90;;;;;;4882785;29;20184;-94
2021/03/09 04:31:25;;;;;;;11.88;7.80;;;-0.80;99.90;;;;;;4884897;29;20288;-94
2021/03/09 04:33:52;;;;;;;12.95;9.07;;;-0.80;99.90;;;;;;4886474;29;20283;-94
2021/03/09 04:36:20;;;;;;;12.45;9.02;;;-0.90;99.90;;;;;;4885971;29;20220;-94
2021/03/09 04:38:47;;;;;;;11.93;9.48;;;-0.90;99.90;;;;;;4887377;29;20216;-94
2021/03/09 04:41:13;;;;;;;12.32;9.00;;;-0.90;99.90;;;;;;4884696;29;20237;-95
2021/03/09 04:43:39;;;;;;;15.07;10.07;;;-1.00;99.90;;;;;;4887096;29;20192;-96
2021/03/09 04:46:07;;;;;;;13.23;9.93;;;-1.00;99.90;;;;;;4884606;29;20558;-93
2021/03/09 04:48:40;;;;;;;13.93;9.80;;;-1.10;99.90;;;;;;4883117;29;20188;-93
2021/03/09 04:51:15;;;;;;;16.00;9.52;;;-1.10;99.90;;;;;;4883581;29;20211;-93
2021/03/09 04:53:41;;;;;;;13.00;9.30;;;-1.10;99.90;;;;;;4885010;29;20204;-93
2021/03/09 04:56:08;;;;;;;12.57;9.57;;;-1.10;99.90;;;;;;4882665;29;20637;-93
2021/03/09 04:58:34;;;;;;;11.18;8.75;;;-1.10;99.90;;;;;;4881791;29;20444;-92
2021/03/09 05:01:03;;;;;;;12.57;9.68;;;-1.20;99.90;;;;;;4893283;29;20203;-96
2021/03/09 05:08:46;;;;;;;12.75;9.05;;;-1.00;99.90;;;;;;5848970;23;20226;-95
2021/03/09 05:11:12;;;;;;;12.20;9.00;;;-1.00;99.90;;;;;;4901424;29;20247;-94
2021/03/09 05:13:37;;;;;;;14.20;8.83;;;-1.10;99.90;;;;;;4916878;29;20191;-93
2021/03/09 05:16:03;;;;;;;12.17;8.43;;;-1.00;99.90;;;;;;4905722;29;20210;-93
2021/03/09 05:18:29;;;;;;;12.80;8.50;;;-1.10;99.90;;;;;;4899204;29;20514;-92
2021/03/09 05:20:54;;;;;;;11.17;8.33;;;-1.30;99.90;;;;;;4903289;29;20199;-94
2021/03/09 05:23:20;;;;;;;9.87;7.60;;;-1.50;99.90;;;;;;4899156;29;20216;-93
2021/03/09 05:25:53;;;;;;;9.67;7.07;;;-1.50;99.90;;;;;;4902748;29;20923;-93
2021/03/09 05:28:21;;;;;;;10.95;7.63;;;-1.60;99.90;;;;;;4903245;29;20218;-94
2021/03/09 05:30:47;;;;;;;12.37;7.70;;;-1.50;99.90;;;;;;4903958;29;20207;-93
2021/03/09 05:33:16;;;;;;;10.90;8.10;;;-1.60;99.90;;;;;;4904757;29;20538;-96
2021/03/09 05:35:45;;;;;;;14.73;8.80;;;-1.60;99.90;;;;;;4915009;29;20198;-93
2021/03/09 05:38:13;;;;;;;10.25;8.10;;;-1.60;99.90;;;;;;4904924;29;20196;-94
2021/03/09 05:40:41;;;;;;;11.73;7.93;;;-1.70;99.90;;;;;;4901696;29;20208;-93
2021/03/09 05:43:10;;;;;;;13.50;8.67;;;-1.70;99.90;;;;;;4887868;29;20198;-92
2021/03/09 05:45:37;;;;;;;11.73;8.23;;;-1.60;99.90;;;;;;4903426;29;20230;-92
2021/03/09 05:48:03;;;;;;;13.05;8.55;;;-1.60;99.90;;;;;;4901638;29;20192;-92
2021/03/09 05:50:29;;;;;;;14.35;8.65;;;-1.60;99.90;;;;;;4904153;29;20203;-94
2021/03/09 05:52:55;;;;;;;14.70;9.57;;;-1.70;99.90;;;;;;4906126;29;20183;-94
2021/03/09 05:55:31;;;;;;;14.13;9.23;;;-1.60;99.90;;;;;;4910734;29;20942;-95
2021/03/09 05:58:00;;;;;;;13.95;9.50;;;-1.60;99.90;;;;;;4908143;29;20187;-95
2021/03/09 06:00:27;;;;;;;12.63;9.50;;;-1.50;99.90;;;;;;4911376;29;20320;-96
2021/03/09 06:03:05;;;;;;;16.75;10.02;;;-1.50;99.90;;;;;;5114611;23;20216;-96
2021/03/09 06:10:41;;;;;;;13.20;9.60;;;-1.40;99.90;;;;;;5143172;23;20262;-95
2021/03/09 06:13:07;;;;;;;13.30;10.00;;;-1.40;99.90;;;;;;4887949;29;20185;-93
2021/03/09 06:15:52;;;;;;;12.27;8.63;;;-1.30;99.90;;;;;;4885098;29;20621;-94
2021/03/09 06:18:24;;;;;;;15.93;9.25;;;-1.20;99.90;;;;;;4905267;29;20286;-96
2021/03/09 06:21:06;;;;;;;12.38;9.65;;;-1.20;99.90;;;;;;4894889;29;20309;-96
2021/03/09 06:23:38;;;;;;;15.40;9.55;;;-1.10;99.90;;;;;;4889599;29;20250;-96
2021/03/09 06:29:23;;;;;;;15.65;10.90;;;-0.90;99.90;;;;;;5563730;23;20214;-96
2021/03/09 06:52:30;;;;;;;12.43;8.40;;;-0.80;99.90;;;;;;4900151;29;20220;-93
2021/03/09 06:54:56;;;;;;;15.15;9.20;;;-0.70;99.90;;;;;;4885493;29;20193;-91
2021/03/09 06:57:23;;;;;;;11.93;8.83;;;-0.60;99.90;;;;;;4884106;29;20681;-92
2021/03/09 06:59:52;;;;;;;12.55;9.30;;;-0.60;99.90;;;;;;4884568;29;20261;-89
2021/03/09 07:02:23;;;;;;;20.55;10.32;;;-0.40;99.90;;;;;;4884810;29;20209;-89
2021/03/09 07:04:54;;;;;;;18.65;11.15;;;-0.30;99.90;;;;;;4885426;29;20239;-91
2021/03/09 07:07:37;;;;;;;17.40;10.52;;;-0.40;99.90;;;;;;4887142;29;20197;-91
2021/03/09 07:10:12;;;;;;;13.65;10.05;;;-0.30;99.90;;;;;;4883252;29;20219;-91
2021/03/09 07:12:40;;;;;;;14.45;9.57;;;-0.30;99.90;;;;;;4891320;29;20637;-92
2021/03/09 07:15:09;;;;;;;13.70;10.55;;;-0.20;99.90;;;;;;4893433;29;20193;-91
2021/03/09 07:17:37;;;;;;;17.95;10.85;;;-0.20;99.90;;;;;;4902116;29;20239;-92
2021/03/09 07:20:10;;;;;;;14.07;10.07;;;-0.20;99.90;;;;;;4888666;29;21075;-91
2021/03/09 07:22:38;;;;;;;13.65;9.32;;;-0.10;99.90;;;;;;4902810;29;20603;-94
2021/03/09 07:25:13;;;;;;;14.98;9.80;;;-0.10;99.90;;;;;;4884928;29;20223;-91
2021/03/09 07:27:48;;;;;;;13.65;9.68;;;0.00;99.90;;;;;;4900107;29;20181;-91
2021/03/09 07:30:16;;;;;;;13.00;10.65;;;0.10;99.90;;;;;;4890774;29;20203;-92
2021/03/09 07:32:50;;;;;;;14.20;10.18;;;0.20;99.90;;;;;;4900619;29;20188;-90
2021/03/09 07:35:16;;;;;;;15.10;10.73;;;0.20;99.90;;;;;;4884326;29;20720;-89
2021/03/09 07:37:42;;;;;;;15.57;11.10;;;0.20;99.90;;;;;;4884872;29;20193;-92
2021/03/09 07:40:12;;;;;;;13.68;10.82;;;0.20;99.90;;;;;;4888412;29;20868;-91
2021/03/09 07:42:38;;;;;;;14.15;10.55;;;0.30;99.90;;;;;;4883289;29;20602;-90
2021/03/09 07:45:13;;;;;;;17.20;11.77;;;0.50;99.90;;;;;;4883197;29;20307;-90
2021/03/09 07:48:04;;;;;;;15.20;11.00;;;0.70;99.90;;;;;;4883980;29;20413;-92
2021/03/09 07:50:36;;;;;;;13.80;9.83;;;0.70;99.90;;;;;;4884615;29;20456;-91
2021/03/09 09:08:18;;;;;;;16.90;12.83;;;4.40;99.90;;;;;;2560997;23;20827;-92
2021/03/09 09:10:45;;;;;;;16.53;12.47;;;4.40;99.90;;;;;;4908420;29;20476;-90
2021/03/09 09:13:11;;;;;;;15.60;13.40;;;4.80;99.90;;;;;;4913478;29;20506;-94
2021/03/09 09:15:36;;;;;;;18.70;13.27;;;5.20;99.90;;;;;;4908296;29;20455;-93
2021/03/09 09:18:07;;;;;;;16.57;13.23;;;5.20;99.80;;;;;;4922288;28;20288;-96
2021/03/09 09:20:52;;;;;;;56.10;42.83;;;5.50;99.90;;;;;;4930015;29;20210;-96
2021/03/09 09:26:16;;;;;;;25.73;22.20;;;5.50;98.40;;;;;;5114654;23;21057;-95
2021/03/09 09:28:42;;;;;;;18.33;13.23;;;5.50;98.80;;;;;;4888002;29;20467;-96
2021/03/09 09:36:32;;;;;;;15.37;12.57;;;5.70;99.10;;;;;;4913678;29;20460;-95
2021/03/09 09:38:58;;;;;;;14.73;12.23;;;5.70;98.10;;;;;;4890175;29;20453;-95
2021/03/09 09:41:24;;;;;;;17.43;13.93;;;5.40;98.80;;;;;;4895660;29;20444;-92
2021/03/09 09:43:50;;;;;;;16.97;12.90;;;5.50;98.90;;;;;;4892118;29;20518;-92
2021/03/09 09:46:23;;;;;;;15.77;12.60;;;5.80;98.20;;;;;;4894688;29;20977;-95
2021/03/09 09:48:51;;;;;;;14.03;12.00;;;5.60;98.20;;;;;;4892407;29;20459;-94
2021/03/09 09:51:22;;;;;;;14.30;12.80;;;5.70;97.80;;;;;;4895689;29;20445;-96
2021/03/09 09:53:49;;;;;;;14.73;12.00;;;5.80;97.80;;;;;;4903833;29;20463;-96
2021/03/09 09:56:18;;;;;;;15.70;12.50;;;5.60;97.30;;;;;;4895676;29;20463;-96
2021/03/09 09:59:03;;;;;;;16.03;12.57;;;6.20;97.30;;;;;;4888280;29;21209;-96
2021/03/09 10:01:33;;;;;;;13.67;11.00;;;6.30;96.70;;;;;;4890838;29;20448;-96
2021/03/09 10:04:02;;;;;;;12.60;11.17;;;6.20;95.60;;;;;;4901655;29;20440;-91
2021/03/09 10:06:48;;;;;;;13.43;11.53;;;6.60;96.50;;;;;;4888661;29;20810;-91
2021/03/09 10:09:17;;;;;;;12.97;10.97;;;7.10;95.40;;;;;;4883725;29;20475;-94
2021/03/09 10:12:04;;;;;;;16.00;12.87;;;7.20;95.20;;;;;;4896359;28;20459;-96
2021/03/09 10:14:36;;;;;;;15.93;11.83;;;6.60;95.00;;;;;;4915580;28;20499;-96
2021/03/09 10:17:03;;;;;;;14.30;11.87;;;6.30;95.90;;;;;;4888487;29;20524;-92
2021/03/09 10:19:37;;;;;;;15.17;12.07;;;6.20;96.20;;;;;;4886782;29;20609;-92
2021/03/09 10:22:16;;;;;;;14.67;11.77;;;6.60;96.40;;;;;;4882539;29;20453;-93
2021/03/09 10:24:42;;;;;;;15.60;11.87;;;6.80;94.90;;;;;;4900254;28;20471;-96
2021/03/09 10:27:17;;;;;;;12.20;11.00;;;7.30;94.70;;;;;;4897158;29;20440;-95
2021/03/09 10:29:42;;;;;;;14.17;11.50;;;7.20;93.90;;;;;;4893996;29;20302;-96
2021/03/09 10:32:18;;;;;;;13.77;11.53;;;7.30;93.90;;;;;;4890086;29;20458;-96
2021/03/09 10:34:51;;;;;;;12.27;10.53;;;7.70;94.10;;;;;;4892689;29;20210;-93
2021/03/09 10:37:19;;;;;;;14.17;10.40;;;8.20;92.90;;;;;;4885346;29;20442;-96
2021/03/09 10:40:03;;;;;;;12.30;9.90;;;8.60;91.30;;;;;;4888153;29;21564;-96
2021/03/09 10:42:32;;;;;;;11.73;10.20;;;8.60;89.10;;;;;;4884918;29;20530;-90
2021/03/09 10:45:20;;;;;;;11.93;10.30;;;8.40;90.30;;;;;;4898995;29;20491;-95
2021/03/09 10:47:50;;;;;;;12.60;10.80;;;8.30;90.20;;;;;;4881745;29;20847;-91
2021/03/09 10:50:17;;;;;;;12.60;11.00;;;8.60;91.60;;;;;;4882301;29;20479;-92
2021/03/09 10:52:51;;;;;;;13.43;11.17;;;8.90;90.40;;;;;;4880127;29;20575;-96
2021/03/09 10:55:17;;;;;;;11.60;9.07;;;8.80;90.20;;;;;;4896271;29;20439;-95
2021/03/09 10:57:43;;;;;;;11.77;10.57;;;9.20;89.00;;;;;;4882398;29;20450;-93
2021/03/09 11:00:11;;;;;;;14.40;10.73;;;9.30;89.00;;;;;;4878710;29;20460;-96
2021/03/09 11:02:37;;;;;;;12.20;11.00;;;9.20;89.00;;;;;;4885251;29;20445;-94
2021/03/09 11:05:04;;;;;;;12.97;10.87;;;9.60;88.70;;;;;;4889049;29;20494;-92
2021/03/09 11:07:30;;;;;;;12.70;10.00;;;10.00;86.30;;;;;;4882085;29;20439;-93
2021/03/09 11:09:55;;;;;;;12.20;10.90;;;10.00;82.40;;;;;;4887656;29;20439;-91
2021/03/09 11:12:21;;;;;;;11.50;10.40;;;10.00;85.90;;;;;;4895861;29;20278;-93
2021/03/09 11:14:47;;;;;;;11.73;9.03;;;10.10;84.10;;;;;;4886230;29;20209;-92
2021/03/09 11:17:13;;;;;;;9.30;8.40;;;10.30;84.60;;;;;;4876197;29;20206;-93
2021/03/09 11:19:38;;;;;;;8.83;7.90;;;10.10;81.50;;;;;;4889182;29;20203;-92
2021/03/09 11:22:04;;;;;;;6.90;6.20;;;10.30;79.30;;;;;;4883315;29;20233;-92
2021/03/09 11:24:30;;;;;;;6.60;5.83;;;10.40;73.70;;;;;;4891601;29;20251;-93
2021/03/09 11:27:00;;;;;;;6.90;6.20;;;10.60;71.40;;;;;;4889561;29;20449;-93
2021/03/09 11:29:29;;;;;;;7.23;6.53;;;10.60;71.70;;;;;;4891432;29;20594;-93
2021/03/09 11:31:57;;;;;;;7.57;6.43;;;10.70;71.40;;;;;;4885376;29;20458;-95
2021/03/09 11:34:24;;;;;;;8.10;7.17;;;10.80;73.10;;;;;;4879547;29;20453;-93
2021/03/09 11:36:50;;;;;;;7.43;6.73;;;11.10;70.90;;;;;;4886371;29;20833;-94
2021/03/09 11:39:15;;;;;;;7.60;6.77;;;11.20;70.90;;;;;;4889013;29;20504;-95
2021/03/09 11:41:44;;;;;;;6.50;5.87;;;11.20;66.50;;;;;;4885369;29;21063;-95
2021/03/09 11:44:10;;;;;;;8.40;6.67;;;11.20;66.20;;;;;;4888516;29;20219;-96
2021/03/09 11:46:36;;;;;;;6.70;6.10;;;11.20;60.40;;;;;;4900912;29;20482;-96
2021/03/09 11:49:03;;;;;;;8.20;6.33;;;11.50;59.50;;;;;;4901794;29;20463;-94
2021/03/09 11:54:12;;;;;;;7.10;6.40;;;11.90;58.60;;;;;;5030372;23;21103;-93
2021/03/09 11:57:01;;;;;;;6.93;6.23;;;11.80;55.70;;;;;;4907426;29;20462;-96
2021/03/09 11:59:26;;;;;;;7.33;6.63;;;11.00;56.80;;;;;;4898637;29;20471;-95
2021/03/09 12:01:52;;;;;;;7.50;6.53;;;10.90;59.70;;;;;;4905305;29;20493;-95
2021/03/09 12:04:18;;;;;;;8.40;7.60;;;10.70;59.00;;;;;;4909940;29;20221;-94
2021/03/09 12:06:44;;;;;;;13.07;9.63;;;10.60;57.90;;;;;;4912284;29;20205;-93
2021/03/09 12:09:10;;;;;;;8.90;8.00;;;10.40;56.80;;;;;;4904594;29;20744;-93
2021/03/09 12:11:47;;;;;;;9.37;8.57;;;10.60;55.60;;;;;;4907907;29;20572;-96
2021/03/09 12:14:12;;;;;;;9.40;8.60;;;10.40;54.40;;;;;;4923754;29;20242;-96
2021/03/09 12:16:38;;;;;;;9.77;8.90;;;10.00;55.60;;;;;;4952012;23;20797;-96
2021/03/09 12:19:04;;;;;;;11.30;9.10;;;10.40;57.90;;;;;;5168823;23;20598;-93
2021/03/09 12:21:29;;;;;;;9.20;8.30;;;10.80;60.20;;;;;;4887133;29;20194;-93
2021/03/09 12:23:56;;;;;;;10.00;9.00;;;11.30;58.50;;;;;;4891915;29;20286;-96
2021/03/09 12:26:22;;;;;;;10.07;9.03;;;11.50;55.40;;;;;;4888976;29;20192;-93
2021/03/09 12:28:47;;;;;;;12.93;9.13;;;11.60;54.00;;;;;;4889936;29;20461;-95
2021/03/09 12:31:13;;;;;;;10.60;9.10;;;11.50;52.50;;;;;;4889814;29;20189;-92
2021/03/09 12:33:39;;;;;;;9.60;8.70;;;12.00;53.10;;;;;;4888678;29;20247;-93
2021/03/09 12:36:05;;;;;;;8.90;8.00;;;11.40;50.60;;;;;;4888313;29;20686;-95
2021/03/09 12:38:30;;;;;;;10.07;9.07;;;10.60;51.20;;;;;;4887550;29;20194;-93
2021/03/09 12:40:57;;;;;;;10.20;8.30;;;10.30;53.60;;;;;;4887871;29;20465;-95
2021/03/09 12:43:22;;;;;;;9.60;8.70;;;10.40;53.90;;;;;;4893184;29;20395;-95
2021/03/09 12:45:48;;;;;;;9.67;8.67;;;10.60;54.50;;;;;;4892501;29;20445;-95
2021/03/09 12:48:14;;;;;;;9.30;8.40;;;11.40;52.20;;;;;;4888991;29;20195;-93
2021/03/09 12:50:40;;;;;;;9.23;8.37;;;12.00;52.00;;;;;;4889685;29;21044;-95
2021/03/09 12:53:08;;;;;;;10.03;8.97;;;12.50;51.00;;;;;;4892569;29;20195;-95
2021/03/09 12:55:42;;;;;;;10.47;8.93;;;12.70;48.00;;;;;;4895899;29;20232;-96
2021/03/09 12:58:08;;;;;;;10.50;8.70;;;13.30;46.70;;;;;;4899134;29;21315;-93
2021/03/09 13:00:34;;;;;;;12.23;8.70;;;13.30;45.80;;;;;;4889222;29;20564;-96
2021/03/09 13:02:59;;;;;;;10.73;8.40;;;13.30;47.20;;;;;;4907264;29;20196;-96
2021/03/09 13:05:26;;;;;;;9.27;8.37;;;13.40;46.40;;;;;;4891542;29;20248;-96
2021/03/09 13:07:53;;;;;;;9.53;8.00;;;13.70;46.60;;;;;;4899412;29;20259;-96
2021/03/09 13:10:18;;;;;;;10.30;9.30;;;14.20;47.30;;;;;;5012526;23;20666;-92
2021/03/09 13:12:44;;;;;;;8.27;7.30;;;14.40;43.00;;;;;;4857792;29;20573;-93
2021/03/09 13:15:11;;;;;;;9.63;8.60;;;14.20;42.30;;;;;;4861030;29;20599;-94
2021/03/09 13:17:38;;;;;;;8.80;8.00;;;14.20;44.30;;;;;;4866084;29;20240;-93
2021/03/09 13:20:10;;;;;;;8.80;8.07;;;14.40;43.50;;;;;;4860094;29;20484;-94
2021/03/09 13:22:37;;;;;;;9.13;8.23;;;14.70;41.60;;;;;;4880049;29;20437;-94
2021/03/09 13:25:05;;;;;;;9.60;8.60;;;15.00;41.60;;;;;;4863342;29;20461;-95
2021/03/09 13:27:32;;;;;;;9.60;8.60;;;13.00;42.10;;;;;;4870355;29;20450;-95
2021/03/09 13:35:38;;;;;;;19.83;9.50;;;14.10;46.40;;;;;;5035027;23;20284;-96
2021/03/09 13:38:06;;;;;;;9.83;8.93;;;14.40;44.60;;;;;;4936232;23;20507;-96
2021/03/09 13:48:23;;;;;;;10.37;9.37;;;15.40;42.00;;;;;;4976821;23;20496;-96
2021/03/09 13:50:49;;;;;;;9.93;8.93;;;14.80;40.20;;;;;;4880261;29;20948;-96
2021/03/09 13:53:15;;;;;;;10.20;8.93;;;13.70;39.90;;;;;;4870623;29;20221;-96
2021/03/09 13:55:41;;;;;;;9.50;8.50;;;12.20;43.60;;;;;;4871641;29;20877;-95
2021/03/09 13:58:42;;;;;;;;;;;;;;;;;;;;;
2021/03/09 14:12:12;;;;;;;11.67;9.23;;;12.60;44.70;;;;;;5122284;23;20496;-96
2021/03/09 14:14:56;;;;;;;9.27;8.37;;;12.70;45.40;;;;;;4895986;29;20477;-96
2021/03/09 14:17:32;;;;;;;11.30;9.40;;;13.00;43.70;;;;;;5020999;23;20213;-96
2021/03/09 14:20:22;;;;;;;10.03;9.13;;;13.20;43.90;;;;;;4917564;28;20488;-96
2021/03/09 14:22:48;;;;;;;10.23;9.13;;;12.60;44.10;;;;;;4900728;29;20531;-96
2021/03/09 14:25:15;;;;;;;9.53;8.63;;;12.50;44.70;;;;;;4909818;29;20457;-96
2021/03/09 14:27:42;;;;;;;9.17;8.27;;;12.50;44.50;;;;;;4889253;29;20460;-94
2021/03/09 14:30:28;;;;;;;9.37;8.47;;;13.00;45.50;;;;;;4886425;29;20460;-96
2021/03/09 14:32:54;;;;;;;10.20;9.10;;;14.10;43.10;;;;;;4911166;29;20463;-95
2021/03/09 14:35:19;;;;;;;10.87;9.43;;;14.70;42.10;;;;;;4890194;29;20544;-96
2021/03/09 14:37:50;;;;;;;11.27;10.23;;;14.60;41.30;;;;;;4878525;29;20200;-95
2021/03/09 14:40:19;;;;;;;11.70;8.87;;;14.40;42.30;;;;;;4954207;23;20315;-96
2021/03/09 14:42:44;;;;;;;9.73;8.83;;;15.30;42.60;;;;;;4873008;29;20813;-92
2021/03/09 14:45:12;;;;;;;14.43;10.00;;;15.80;39.90;;;;;;4860363;29;20636;-95
2021/03/09 14:47:38;;;;;;;9.87;8.87;;;15.10;40.00;;;;;;4862635;29;20204;-95
2021/03/09 14:50:09;;;;;;;11.10;10.00;;;14.50;40.90;;;;;;4874031;29;20462;-94
2021/03/09 14:52:38;;;;;;;11.77;9.80;;;14.20;42.10;;;;;;4874318;29;20542;-94
2021/03/09 14:55:08;;;;;;;10.37;9.47;;;14.10;42.80;;;;;;4875678;29;20489;-95
2021/03/09 14:57:35;;;;;;;10.60;9.60;;;13.70;42.60;;;;;;4872566;29;20490;-94
2021/03/09 15:00:03;;;;;;;10.87;9.07;;;13.90;42.00;;;;;;4875345;29;20458;-95
2021/03/09 15:02:29;;;;;;;12.10;9.60;;;14.40;42.40;;;;;;4857893;29;20533;-93
2021/03/09 15:04:55;;;;;;;11.80;10.60;;;14.60;42.30;;;;;;4856048;29;20445;-93
2021/03/09 15:07:20;;;;;;;10.70;9.70;;;15.00;42.50;;;;;;4872321;29;20209;-94
2021/03/09 15:09:46;;;;;;;10.97;9.80;;;14.30;41.60;;;;;;4873028;29;20257;-93
2021/03/09 15:12:12;;;;;;;9.87;8.97;;;12.60;43.80;;;;;;4857320;29;20573;-94
2021/03/09 15:14:39;;;;;;;9.90;9.00;;;12.60;44.70;;;;;;4873594;29;20623;-93